sensor_id;sensor_type;location;lat;lon;timestamp;P1;durP1;ratioP1;P2;durP2;ratioP2
32196;SDS011;18697;42.770;23.400;2023-02-28T00:00:21;30.30;;;14.07;;
32196;SDS011;18697;42.770;23.400;2023-02-28T00:02:47;33.75;;;15.32;;
32196;SDS011;18697;42.770;23.400;2023-02-28T00:05:13;39.47;;;19.88;;
32196;SDS011;18697;42.770;23.400;2023-02-28T00:07:40;41.25;;;18.42;;
32196;SDS011;18697;42.770;23.400;2023-02-28T00:10:07;46.95;;;19.67;;
32196;SDS011;18697;42.770;23.400;2023-02-28T00:12:35;29.52;;;15.25;;
32196;SDS011;18697;42.770;23.400;2023-02-28T00:15:01;28.88;;;15.15;;
32196;SDS011;18697;42.770;23.400;2023-02-28T00:17:27;28.15;;;15.77;;
32196;SDS011;18697;42.770;23.400;2023-02-28T00:19:52;27.15;;;14.77;;
32196;SDS011;18697;42.770;23.400;2023-02-28T00:22:18;28.92;;;15.43;;
32196;SDS011;18697;42.770;23.400;2023-02-28T00:24:46;26.70;;;14.57;;
32196;SDS011;18697;42.770;23.400;2023-02-28T00:27:12;31.38;;;16.80;;
32196;SDS011;18697;42.770;23.400;2023-02-28T00:29:38;42.45;;;20.20;;
32196;SDS011;18697;42.770;23.400;2023-02-28T00:32:04;40.30;;;20.63;;
32196;SDS011;18697;42.770;23.400;2023-02-28T00:34:30;37.78;;;17.77;;
32196;SDS011;18697;42.770;23.400;2023-02-28T00:36:56;39.15;;;20.40;;
32196;SDS011;18697;42.770;23.400;2023-02-28T00:39:21;40.72;;;18.67;;
32196;SDS011;18697;42.770;23.400;2023-02-28T00:41:47;33.80;;;18.27;;
32196;SDS011;18697;42.770;23.400;2023-02-28T00:44:12;41.65;;;21.80;;
32196;SDS011;18697;42.770;23.400;2023-02-28T00:46:38;37.92;;;20.92;;
32196;SDS011;18697;42.770;23.400;2023-02-28T00:51:28;26.42;;;15.00;;
32196;SDS011;18697;42.770;23.400;2023-02-28T00:53:54;24.45;;;15.95;;
32196;SDS011;18697;42.770;23.400;2023-02-28T00:56:19;24.60;;;13.80;;
32196;SDS011;18697;42.770;23.400;2023-02-28T00:58:45;22.70;;;13.60;;
32196;SDS011;18697;42.770;23.400;2023-02-28T01:01:10;22.70;;;13.82;;
32196;SDS011;18697;42.770;23.400;2023-02-28T01:03:36;21.63;;;13.65;;
32196;SDS011;18697;42.770;23.400;2023-02-28T01:06:01;22.52;;;14.38;;
32196;SDS011;18697;42.770;23.400;2023-02-28T01:10:52;22.45;;;14.30;;
32196;SDS011;18697;42.770;23.400;2023-02-28T01:13:18;29.75;;;16.50;;
32196;SDS011;18697;42.770;23.400;2023-02-28T01:15:50;29.90;;;17.30;;
32196;SDS011;18697;42.770;23.400;2023-02-28T01:18:17;30.80;;;18.65;;
32196;SDS011;18697;42.770;23.400;2023-02-28T01:20:44;27.48;;;17.33;;
32196;SDS011;18697;42.770;23.400;2023-02-28T01:23:11;32.55;;;18.42;;
32196;SDS011;18697;42.770;23.400;2023-02-28T01:25:36;54.85;;;26.63;;
32196;SDS011;18697;42.770;23.400;2023-02-28T01:28:02;54.53;;;28.83;;
32196;SDS011;18697;42.770;23.400;2023-02-28T01:30:27;33.72;;;20.10;;
32196;SDS011;18697;42.770;23.400;2023-02-28T01:32:53;32.90;;;19.00;;
32196;SDS011;18697;42.770;23.400;2023-02-28T01:35:18;31.08;;;19.08;;
32196;SDS011;18697;42.770;23.400;2023-02-28T01:37:44;38.10;;;20.30;;
32196;SDS011;18697;42.770;23.400;2023-02-28T01:40:09;31.02;;;19.65;;
32196;SDS011;18697;42.770;23.400;2023-02-28T01:42:35;34.33;;;20.70;;
32196;SDS011;18697;42.770;23.400;2023-02-28T01:48:05;37.33;;;20.40;;
32196;SDS011;18697;42.770;23.400;2023-02-28T01:50:37;31.38;;;18.50;;
32196;SDS011;18697;42.770;23.400;2023-02-28T01:53:06;30.67;;;17.33;;
32196;SDS011;18697;42.770;23.400;2023-02-28T01:55:36;26.67;;;17.05;;
32196;SDS011;18697;42.770;23.400;2023-02-28T01:58:03;34.65;;;19.70;;
32196;SDS011;18697;42.770;23.400;2023-02-28T02:00:31;30.80;;;18.25;;
32196;SDS011;18697;42.770;23.400;2023-02-28T02:02:57;24.85;;;16.52;;
32196;SDS011;18697;42.770;23.400;2023-02-28T02:05:26;31.80;;;16.85;;
32196;SDS011;18697;42.770;23.400;2023-02-28T02:07:56;28.60;;;16.75;;
32196;SDS011;18697;42.770;23.400;2023-02-28T02:10:31;33.40;;;17.85;;
32196;SDS011;18697;42.770;23.400;2023-02-28T02:13:03;32.13;;;18.90;;
32196;SDS011;18697;42.770;23.400;2023-02-28T02:24:09;30.30;;;16.13;;
32196;SDS011;18697;42.770;23.400;2023-02-28T02:38:28;28.58;;;16.95;;
32196;SDS011;18697;42.770;23.400;2023-02-28T02:43:51;33.00;;;19.10;;
32196;SDS011;18697;42.770;23.400;2023-02-28T02:46:29;31.77;;;18.58;;
32196;SDS011;18697;42.770;23.400;2023-02-28T02:49:04;32.67;;;18.08;;
32196;SDS011;18697;42.770;23.400;2023-02-28T02:51:34;28.92;;;17.20;;
32196;SDS011;18697;42.770;23.400;2023-02-28T02:56:28;25.40;;;16.70;;
32196;SDS011;18697;42.770;23.400;2023-02-28T02:58:58;27.70;;;16.50;;
32196;SDS011;18697;42.770;23.400;2023-02-28T03:01:26;35.63;;;17.38;;
32196;SDS011;18697;42.770;23.400;2023-02-28T03:03:57;109.95;;;61.63;;
32196;SDS011;18697;42.770;23.400;2023-02-28T03:06:25;52.25;;;32.15;;
32196;SDS011;18697;42.770;23.400;2023-02-28T03:08:51;42.05;;;20.58;;
32196;SDS011;18697;42.770;23.400;2023-02-28T03:11:17;36.85;;;19.75;;
32196;SDS011;18697;42.770;23.400;2023-02-28T03:13:58;36.97;;;20.05;;
32196;SDS011;18697;42.770;23.400;2023-02-28T03:17:40;37.10;;;18.65;;
32196;SDS011;18697;42.770;23.400;2023-02-28T03:19:54;35.15;;;18.17;;
32196;SDS011;18697;42.770;23.400;2023-02-28T03:30:53;38.15;;;19.13;;
32196;SDS011;18697;42.770;23.400;2023-02-28T03:33:26;40.80;;;19.70;;
32196;SDS011;18697;42.770;23.400;2023-02-28T03:36:04;64.75;;;21.58;;
32196;SDS011;18697;42.770;23.400;2023-02-28T03:41:14;66.10;;;26.17;;
32196;SDS011;18697;42.770;23.400;2023-02-28T03:43:49;81.03;;;21.15;;
32196;SDS011;18697;42.770;23.400;2023-02-28T03:46:22;69.78;;;20.58;;
32196;SDS011;18697;42.770;23.400;2023-02-28T03:48:52;79.47;;;17.42;;
32196;SDS011;18697;42.770;23.400;2023-02-28T03:51:19;114.47;;;19.90;;
32196;SDS011;18697;42.770;23.400;2023-02-28T03:53:50;80.45;;;24.35;;
32196;SDS011;18697;42.770;23.400;2023-02-28T03:56:27;75.07;;;24.75;;
32196;SDS011;18697;42.770;23.400;2023-02-28T04:01:37;56.58;;;21.60;;
32196;SDS011;18697;42.770;23.400;2023-02-28T04:04:06;73.00;;;21.02;;
32196;SDS011;18697;42.770;23.400;2023-02-28T04:06:33;55.45;;;19.95;;
32196;SDS011;18697;42.770;23.400;2023-02-28T04:08:59;63.28;;;21.45;;
32196;SDS011;18697;42.770;23.400;2023-02-28T04:14:01;51.75;;;23.10;;
32196;SDS011;18697;42.770;23.400;2023-02-28T04:16:28;67.05;;;24.65;;
32196;SDS011;18697;42.770;23.400;2023-02-28T04:18:54;57.28;;;22.83;;
32196;SDS011;18697;42.770;23.400;2023-02-28T04:21:27;62.38;;;23.10;;
32196;SDS011;18697;42.770;23.400;2023-02-28T04:23:56;73.20;;;25.55;;
32196;SDS011;18697;42.770;23.400;2023-02-28T04:26:29;62.38;;;24.58;;
32196;SDS011;18697;42.770;23.400;2023-02-28T04:28:59;63.80;;;25.20;;
32196;SDS011;18697;42.770;23.400;2023-02-28T04:31:25;75.80;;;23.50;;
32196;SDS011;18697;42.770;23.400;2023-02-28T04:33:50;65.07;;;20.80;;
32196;SDS011;18697;42.770;23.400;2023-02-28T04:36:16;66.57;;;27.80;;
32196;SDS011;18697;42.770;23.400;2023-02-28T04:38:43;65.47;;;26.20;;
32196;SDS011;18697;42.770;23.400;2023-02-28T04:41:10;64.20;;;22.10;;
32196;SDS011;18697;42.770;23.400;2023-02-28T04:43:35;45.10;;;23.70;;
32196;SDS011;18697;42.770;23.400;2023-02-28T04:46:01;45.85;;;25.20;;
32196;SDS011;18697;42.770;23.400;2023-02-28T04:48:28;46.72;;;23.27;;
32196;SDS011;18697;42.770;23.400;2023-02-28T04:50:54;102.82;;;63.78;;
32196;SDS011;18697;42.770;23.400;2023-02-28T04:53:20;43.40;;;26.98;;
32196;SDS011;18697;42.770;23.400;2023-02-28T04:55:46;46.50;;;23.95;;
32196;SDS011;18697;42.770;23.400;2023-02-28T04:58:12;60.45;;;20.55;;
32196;SDS011;18697;42.770;23.400;2023-02-28T05:00:38;51.72;;;21.88;;
32196;SDS011;18697;42.770;23.400;2023-02-28T05:03:04;46.53;;;21.40;;
32196;SDS011;18697;42.770;23.400;2023-02-28T05:05:29;59.67;;;22.80;;
32196;SDS011;18697;42.770;23.400;2023-02-28T05:07:55;70.45;;;22.35;;
32196;SDS011;18697;42.770;23.400;2023-02-28T05:10:21;67.10;;;23.42;;
32196;SDS011;18697;42.770;23.400;2023-02-28T05:12:47;75.68;;;25.50;;
32196;SDS011;18697;42.770;23.400;2023-02-28T05:15:14;76.45;;;27.52;;
32196;SDS011;18697;42.770;23.400;2023-02-28T05:17:40;78.25;;;30.80;;
32196;SDS011;18697;42.770;23.400;2023-02-28T05:20:06;140.52;;;59.22;;
32196;SDS011;18697;42.770;23.400;2023-02-28T05:22:33;100.57;;;45.75;;
32196;SDS011;18697;42.770;23.400;2023-02-28T05:24:59;72.93;;;34.42;;
32196;SDS011;18697;42.770;23.400;2023-02-28T05:27:24;63.90;;;27.60;;
32196;SDS011;18697;42.770;23.400;2023-02-28T05:29:50;61.58;;;28.13;;
32196;SDS011;18697;42.770;23.400;2023-02-28T05:32:15;122.97;;;50.22;;
32196;SDS011;18697;42.770;23.400;2023-02-28T05:34:40;82.25;;;41.38;;
32196;SDS011;18697;42.770;23.400;2023-02-28T05:37:10;58.40;;;26.30;;
32196;SDS011;18697;42.770;23.400;2023-02-28T05:39:37;54.67;;;25.02;;
32196;SDS011;18697;42.770;23.400;2023-02-28T05:42:03;50.15;;;24.33;;
32196;SDS011;18697;42.770;23.400;2023-02-28T05:44:29;59.83;;;26.88;;
32196;SDS011;18697;42.770;23.400;2023-02-28T05:46:54;40.00;;;22.40;;
32196;SDS011;18697;42.770;23.400;2023-02-28T05:49:20;41.85;;;21.50;;
32196;SDS011;18697;42.770;23.400;2023-02-28T05:51:45;44.63;;;23.30;;
32196;SDS011;18697;42.770;23.400;2023-02-28T05:54:11;42.22;;;22.63;;
32196;SDS011;18697;42.770;23.400;2023-02-28T05:56:36;31.58;;;18.38;;
32196;SDS011;18697;42.770;23.400;2023-02-28T05:59:05;26.10;;;15.18;;
32196;SDS011;18697;42.770;23.400;2023-02-28T06:03:58;25.27;;;15.80;;
32196;SDS011;18697;42.770;23.400;2023-02-28T06:06:25;28.13;;;18.58;;
32196;SDS011;18697;42.770;23.400;2023-02-28T06:08:50;27.60;;;18.80;;
32196;SDS011;18697;42.770;23.400;2023-02-28T06:11:16;25.13;;;16.48;;
32196;SDS011;18697;42.770;23.400;2023-02-28T06:13:41;22.35;;;16.67;;
32196;SDS011;18697;42.770;23.400;2023-02-28T06:16:08;48.97;;;26.98;;
32196;SDS011;18697;42.770;23.400;2023-02-28T06:18:35;34.20;;;20.88;;
32196;SDS011;18697;42.770;23.400;2023-02-28T06:21:01;35.90;;;21.98;;
32196;SDS011;18697;42.770;23.400;2023-02-28T06:23:27;26.73;;;18.30;;
32196;SDS011;18697;42.770;23.400;2023-02-28T06:25:52;31.13;;;17.95;;
32196;SDS011;18697;42.770;23.400;2023-02-28T06:28:18;27.58;;;17.38;;
32196;SDS011;18697;42.770;23.400;2023-02-28T06:30:43;25.40;;;16.98;;
32196;SDS011;18697;42.770;23.400;2023-02-28T06:33:09;23.67;;;16.35;;
32196;SDS011;18697;42.770;23.400;2023-02-28T06:35:34;26.77;;;17.88;;
32196;SDS011;18697;42.770;23.400;2023-02-28T06:38:00;25.80;;;17.05;;
32196;SDS011;18697;42.770;23.400;2023-02-28T06:40:25;20.98;;;14.35;;
32196;SDS011;18697;42.770;23.400;2023-02-28T06:42:51;25.90;;;16.73;;
32196;SDS011;18697;42.770;23.400;2023-02-28T06:45:17;26.25;;;16.73;;
32196;SDS011;18697;42.770;23.400;2023-02-28T06:50:11;72.43;;;39.05;;
32196;SDS011;18697;42.770;23.400;2023-02-28T06:52:37;65.85;;;40.65;;
32196;SDS011;18697;42.770;23.400;2023-02-28T06:55:04;31.20;;;22.08;;
32196;SDS011;18697;42.770;23.400;2023-02-28T06:57:31;28.77;;;19.30;;
32196;SDS011;18697;42.770;23.400;2023-02-28T07:00:02;21.20;;;15.20;;
32196;SDS011;18697;42.770;23.400;2023-02-28T07:02:32;25.30;;;15.23;;
32196;SDS011;18697;42.770;23.400;2023-02-28T07:04:58;25.25;;;15.50;;
32196;SDS011;18697;42.770;23.400;2023-02-28T07:07:23;25.63;;;18.15;;
32196;SDS011;18697;42.770;23.400;2023-02-28T07:09:49;28.08;;;19.52;;
32196;SDS011;18697;42.770;23.400;2023-02-28T07:12:14;26.23;;;17.85;;
32196;SDS011;18697;42.770;23.400;2023-02-28T07:14:40;29.10;;;18.13;;
32196;SDS011;18697;42.770;23.400;2023-02-28T07:17:09;28.98;;;17.67;;
32196;SDS011;18697;42.770;23.400;2023-02-28T07:19:37;43.25;;;22.35;;
32196;SDS011;18697;42.770;23.400;2023-02-28T07:22:06;42.42;;;21.48;;
32196;SDS011;18697;42.770;23.400;2023-02-28T07:24:31;42.88;;;22.98;;
32196;SDS011;18697;42.770;23.400;2023-02-28T07:26:57;31.77;;;20.83;;
32196;SDS011;18697;42.770;23.400;2023-02-28T07:29:22;39.67;;;20.75;;
32196;SDS011;18697;42.770;23.400;2023-02-28T07:31:48;35.10;;;22.17;;
32196;SDS011;18697;42.770;23.400;2023-02-28T07:34:15;42.40;;;22.65;;
32196;SDS011;18697;42.770;23.400;2023-02-28T07:36:41;42.60;;;22.73;;
32196;SDS011;18697;42.770;23.400;2023-02-28T07:39:06;41.65;;;23.00;;
32196;SDS011;18697;42.770;23.400;2023-02-28T07:41:34;71.80;;;40.60;;
32196;SDS011;18697;42.770;23.400;2023-02-28T07:44:02;108.30;;;59.40;;
32196;SDS011;18697;42.770;23.400;2023-02-28T07:46:28;107.07;;;50.72;;
32196;SDS011;18697;42.770;23.400;2023-02-28T07:48:59;95.13;;;51.60;;
32196;SDS011;18697;42.770;23.400;2023-02-28T07:51:25;81.40;;;38.80;;
32196;SDS011;18697;42.770;23.400;2023-02-28T07:53:51;72.70;;;37.80;;
32196;SDS011;18697;42.770;23.400;2023-02-28T07:56:16;79.07;;;39.72;;
32196;SDS011;18697;42.770;23.400;2023-02-28T08:01:07;76.55;;;38.75;;
32196;SDS011;18697;42.770;23.400;2023-02-28T08:03:34;71.18;;;34.83;;
32196;SDS011;18697;42.770;23.400;2023-02-28T08:06:00;67.63;;;33.00;;
32196;SDS011;18697;42.770;23.400;2023-02-28T08:08:27;57.25;;;28.98;;
32196;SDS011;18697;42.770;23.400;2023-02-28T08:10:57;45.45;;;24.73;;
32196;SDS011;18697;42.770;23.400;2023-02-28T08:13:27;62.38;;;27.08;;
32196;SDS011;18697;42.770;23.400;2023-02-28T08:15:54;48.60;;;25.05;;
32196;SDS011;18697;42.770;23.400;2023-02-28T08:18:20;43.95;;;23.50;;
32196;SDS011;18697;42.770;23.400;2023-02-28T08:20:46;53.28;;;27.08;;
32196;SDS011;18697;42.770;23.400;2023-02-28T08:23:12;58.60;;;26.83;;
32196;SDS011;18697;42.770;23.400;2023-02-28T08:25:37;48.47;;;25.42;;
32196;SDS011;18697;42.770;23.400;2023-02-28T08:28:03;65.68;;;32.08;;
32196;SDS011;18697;42.770;23.400;2023-02-28T08:30:28;50.58;;;25.23;;
32196;SDS011;18697;42.770;23.400;2023-02-28T08:32:54;36.70;;;20.52;;
32196;SDS011;18697;42.770;23.400;2023-02-28T08:35:20;47.42;;;22.83;;
32196;SDS011;18697;42.770;23.400;2023-02-28T08:37:49;51.80;;;24.88;;
32196;SDS011;18697;42.770;23.400;2023-02-28T08:40:15;45.05;;;21.67;;
32196;SDS011;18697;42.770;23.400;2023-02-28T08:42:44;53.30;;;23.45;;
32196;SDS011;18697;42.770;23.400;2023-02-28T08:45:10;48.38;;;23.05;;
32196;SDS011;18697;42.770;23.400;2023-02-28T08:47:36;41.40;;;22.15;;
32196;SDS011;18697;42.770;23.400;2023-02-28T08:50:02;48.33;;;24.73;;
32196;SDS011;18697;42.770;23.400;2023-02-28T08:52:28;40.97;;;22.63;;
32196;SDS011;18697;42.770;23.400;2023-02-28T08:54:53;47.72;;;24.52;;
32196;SDS011;18697;42.770;23.400;2023-02-28T08:57:19;50.53;;;23.70;;
32196;SDS011;18697;42.770;23.400;2023-02-28T08:59:44;50.63;;;24.60;;
32196;SDS011;18697;42.770;23.400;2023-02-28T09:04:37;48.20;;;22.88;;
32196;SDS011;18697;42.770;23.400;2023-02-28T09:07:03;45.38;;;23.63;;
32196;SDS011;18697;42.770;23.400;2023-02-28T09:09:28;47.05;;;25.00;;
32196;SDS011;18697;42.770;23.400;2023-02-28T09:11:55;50.83;;;27.27;;
32196;SDS011;18697;42.770;23.400;2023-02-28T09:14:21;41.97;;;22.40;;
32196;SDS011;18697;42.770;23.400;2023-02-28T09:16:46;46.45;;;21.50;;
32196;SDS011;18697;42.770;23.400;2023-02-28T09:19:12;45.13;;;23.65;;
32196;SDS011;18697;42.770;23.400;2023-02-28T09:21:37;47.53;;;24.80;;
32196;SDS011;18697;42.770;23.400;2023-02-28T09:24:03;42.08;;;22.88;;
32196;SDS011;18697;42.770;23.400;2023-02-28T09:28:54;50.15;;;26.15;;
32196;SDS011;18697;42.770;23.400;2023-02-28T09:31:21;43.60;;;23.60;;
32196;SDS011;18697;42.770;23.400;2023-02-28T09:33:49;42.72;;;22.25;;
32196;SDS011;18697;42.770;23.400;2023-02-28T09:36:16;41.92;;;22.88;;
32196;SDS011;18697;42.770;23.400;2023-02-28T09:38:42;38.20;;;21.25;;
32196;SDS011;18697;42.770;23.400;2023-02-28T09:41:17;40.53;;;21.02;;
32196;SDS011;18697;42.770;23.400;2023-02-28T09:43:55;42.92;;;20.95;;
32196;SDS011;18697;42.770;23.400;2023-02-28T09:48:51;39.58;;;20.55;;
32196;SDS011;18697;42.770;23.400;2023-02-28T09:53:52;37.33;;;19.80;;
32196;SDS011;18697;42.770;23.400;2023-02-28T09:56:20;34.47;;;19.65;;
32196;SDS011;18697;42.770;23.400;2023-02-28T09:59:53;37.20;;;20.67;;
32196;SDS011;18697;42.770;23.400;2023-02-28T10:01:57;40.33;;;21.17;;
32196;SDS011;18697;42.770;23.400;2023-02-28T10:07:29;38.67;;;19.08;;
32196;SDS011;18697;42.770;23.400;2023-02-28T10:10:23;37.47;;;19.70;;
32196;SDS011;18697;42.770;23.400;2023-02-28T10:12:53;44.72;;;23.40;;
32196;SDS011;18697;42.770;23.400;2023-02-28T10:15:21;35.47;;;19.80;;
32196;SDS011;18697;42.770;23.400;2023-02-28T10:17:53;32.20;;;17.42;;
32196;SDS011;18697;42.770;23.400;2023-02-28T10:20:22;32.42;;;17.88;;
32196;SDS011;18697;42.770;23.400;2023-02-28T10:25:36;36.60;;;17.77;;
32196;SDS011;18697;42.770;23.400;2023-02-28T10:28:10;29.50;;;17.27;;
32196;SDS011;18697;42.770;23.400;2023-02-28T10:30:37;39.95;;;17.08;;
32196;SDS011;18697;42.770;23.400;2023-02-28T10:33:08;30.30;;;17.98;;
32196;SDS011;18697;42.770;23.400;2023-02-28T10:35:49;40.83;;;20.02;;
32196;SDS011;18697;42.770;23.400;2023-02-28T10:38:17;36.72;;;18.83;;
32196;SDS011;18697;42.770;23.400;2023-02-28T10:40:44;32.20;;;15.38;;
32196;SDS011;18697;42.770;23.400;2023-02-28T10:45:38;37.65;;;21.88;;
32196;SDS011;18697;42.770;23.400;2023-02-28T10:50:44;26.55;;;16.38;;
32196;SDS011;18697;42.770;23.400;2023-02-28T11:01:19;33.03;;;17.67;;
32196;SDS011;18697;42.770;23.400;2023-02-28T11:03:47;39.65;;;17.58;;
32196;SDS011;18697;42.770;23.400;2023-02-28T11:06:15;29.95;;;16.10;;
32196;SDS011;18697;42.770;23.400;2023-02-28T11:08:47;35.10;;;18.45;;
32196;SDS011;18697;42.770;23.400;2023-02-28T11:11:16;40.58;;;18.08;;
32196;SDS011;18697;42.770;23.400;2023-02-28T11:13:42;30.25;;;17.40;;
32196;SDS011;18697;42.770;23.400;2023-02-28T11:16:10;36.05;;;16.95;;
32196;SDS011;18697;42.770;23.400;2023-02-28T11:18:56;33.67;;;17.83;;
32196;SDS011;18697;42.770;23.400;2023-02-28T11:21:26;30.35;;;16.95;;
32196;SDS011;18697;42.770;23.400;2023-02-28T11:23:59;36.85;;;19.00;;
32196;SDS011;18697;42.770;23.400;2023-02-28T11:26:36;40.25;;;17.33;;
32196;SDS011;18697;42.770;23.400;2023-02-28T11:29:18;33.08;;;16.83;;
32196;SDS011;18697;42.770;23.400;2023-02-28T11:32:02;37.85;;;17.30;;
32196;SDS011;18697;42.770;23.400;2023-02-28T11:34:34;37.05;;;17.80;;
32196;SDS011;18697;42.770;23.400;2023-02-28T11:37:00;37.55;;;18.27;;
32196;SDS011;18697;42.770;23.400;2023-02-28T11:39:31;37.13;;;20.27;;
32196;SDS011;18697;42.770;23.400;2023-02-28T11:47:24;43.58;;;19.00;;
32196;SDS011;18697;42.770;23.400;2023-02-28T11:52:56;50.30;;;21.45;;
32196;SDS011;18697;42.770;23.400;2023-02-28T12:03:19;32.22;;;17.08;;
32196;SDS011;18697;42.770;23.400;2023-02-28T12:06:06;33.35;;;17.30;;
32196;SDS011;18697;42.770;23.400;2023-02-28T12:17:11;32.47;;;17.50;;
32196;SDS011;18697;42.770;23.400;2023-02-28T12:22:31;27.13;;;13.65;;
32196;SDS011;18697;42.770;23.400;2023-02-28T12:25:08;37.67;;;15.80;;
32196;SDS011;18697;42.770;23.400;2023-02-28T12:27:46;28.35;;;16.10;;
32196;SDS011;18697;42.770;23.400;2023-02-28T12:30:13;29.13;;;16.15;;
32196;SDS011;18697;42.770;23.400;2023-02-28T12:32:41;28.20;;;14.18;;
32196;SDS011;18697;42.770;23.400;2023-02-28T12:35:14;33.25;;;16.23;;
32196;SDS011;18697;42.770;23.400;2023-02-28T12:37:46;41.45;;;19.63;;
32196;SDS011;18697;42.770;23.400;2023-02-28T12:40:20;35.88;;;16.67;;
32196;SDS011;18697;42.770;23.400;2023-02-28T12:42:49;28.17;;;15.18;;
32196;SDS011;18697;42.770;23.400;2023-02-28T12:47:46;30.08;;;15.43;;
32196;SDS011;18697;42.770;23.400;2023-02-28T12:50:26;33.33;;;15.60;;
32196;SDS011;18697;42.770;23.400;2023-02-28T12:52:58;32.00;;;14.93;;
32196;SDS011;18697;42.770;23.400;2023-02-28T12:55:33;33.85;;;16.52;;
32196;SDS011;18697;42.770;23.400;2023-02-28T12:58:05;39.45;;;17.30;;
32196;SDS011;18697;42.770;23.400;2023-02-28T13:00:43;39.45;;;19.67;;
32196;SDS011;18697;42.770;23.400;2023-02-28T13:09:09;35.72;;;15.82;;
32196;SDS011;18697;42.770;23.400;2023-02-28T13:14:28;31.00;;;15.57;;
32196;SDS011;18697;42.770;23.400;2023-02-28T13:19:32;34.30;;;16.50;;
32196;SDS011;18697;42.770;23.400;2023-02-28T13:21:59;29.70;;;15.15;;
32196;SDS011;18697;42.770;23.400;2023-02-28T13:24:37;37.22;;;16.42;;
32196;SDS011;18697;42.770;23.400;2023-02-28T13:29:50;39.17;;;19.00;;
32196;SDS011;18697;42.770;23.400;2023-02-28T13:32:18;30.25;;;15.25;;
32196;SDS011;18697;42.770;23.400;2023-02-28T13:47:37;31.83;;;16.95;;
32196;SDS011;18697;42.770;23.400;2023-02-28T13:55:53;43.22;;;18.52;;
32196;SDS011;18697;42.770;23.400;2023-02-28T14:06:36;27.80;;;15.20;;
32196;SDS011;18697;42.770;23.400;2023-02-28T14:09:16;41.25;;;16.23;;
32196;SDS011;18697;42.770;23.400;2023-02-28T14:11:48;35.60;;;15.32;;
32196;SDS011;18697;42.770;23.400;2023-02-28T14:17:05;73.85;;;35.88;;
32196;SDS011;18697;42.770;23.400;2023-02-28T14:19:34;147.68;;;72.97;;
32196;SDS011;18697;42.770;23.400;2023-02-28T14:33:33;35.40;;;21.85;;
32196;SDS011;18697;42.770;23.400;2023-02-28T14:38:56;26.13;;;13.32;;
32196;SDS011;18697;42.770;23.400;2023-02-28T14:41:34;22.02;;;13.18;;
32196;SDS011;18697;42.770;23.400;2023-02-28T14:44:37;13.50;;;7.95;;
32196;SDS011;18697;42.770;23.400;2023-02-28T14:46:56;30.38;;;14.25;;
32196;SDS011;18697;42.770;23.400;2023-02-28T14:54:35;21.23;;;11.20;;
32196;SDS011;18697;42.770;23.400;2023-02-28T14:57:02;16.73;;;8.73;;
32196;SDS011;18697;42.770;23.400;2023-02-28T14:59:32;28.08;;;11.93;;
32196;SDS011;18697;42.770;23.400;2023-02-28T15:02:16;13.82;;;6.63;;
32196;SDS011;18697;42.770;23.400;2023-02-28T15:04:53;6.63;;;4.32;;
32196;SDS011;18697;42.770;23.400;2023-02-28T15:10:08;14.25;;;5.63;;
32196;SDS011;18697;42.770;23.400;2023-02-28T15:12:39;8.30;;;4.47;;
32196;SDS011;18697;42.770;23.400;2023-02-28T15:15:13;13.88;;;7.35;;
32196;SDS011;18697;42.770;23.400;2023-02-28T15:17:40;8.35;;;5.60;;
32196;SDS011;18697;42.770;23.400;2023-02-28T15:20:11;5.22;;;3.25;;
32196;SDS011;18697;42.770;23.400;2023-02-28T15:22:38;9.25;;;4.00;;
32196;SDS011;18697;42.770;23.400;2023-02-28T15:25:04;7.43;;;4.15;;
32196;SDS011;18697;42.770;23.400;2023-02-28T15:27:33;6.03;;;3.03;;
32196;SDS011;18697;42.770;23.400;2023-02-28T15:30:12;7.40;;;3.95;;
32196;SDS011;18697;42.770;23.400;2023-02-28T15:32:41;13.27;;;9.40;;
32196;SDS011;18697;42.770;23.400;2023-02-28T15:38:24;5.75;;;3.20;;
32196;SDS011;18697;42.770;23.400;2023-02-28T15:40:55;12.98;;;6.70;;
32196;SDS011;18697;42.770;23.400;2023-02-28T15:43:32;28.75;;;9.45;;
32196;SDS011;18697;42.770;23.400;2023-02-28T15:48:28;10.93;;;5.35;;
32196;SDS011;18697;42.770;23.400;2023-02-28T15:50:58;26.58;;;13.13;;
32196;SDS011;18697;42.770;23.400;2023-02-28T15:54:00;14.63;;;5.95;;
32196;SDS011;18697;42.770;23.400;2023-02-28T15:56:43;5.20;;;2.50;;
32196;SDS011;18697;42.770;23.400;2023-02-28T15:59:14;5.70;;;3.53;;
32196;SDS011;18697;42.770;23.400;2023-02-28T16:01:42;17.02;;;7.90;;
32196;SDS011;18697;42.770;23.400;2023-02-28T16:04:15;30.98;;;13.38;;
32196;SDS011;18697;42.770;23.400;2023-02-28T16:06:43;26.67;;;10.50;;
32196;SDS011;18697;42.770;23.400;2023-02-28T16:09:18;22.53;;;9.13;;
32196;SDS011;18697;42.770;23.400;2023-02-28T16:11:47;22.27;;;9.98;;
32196;SDS011;18697;42.770;23.400;2023-02-28T16:14:16;17.42;;;8.50;;
32196;SDS011;18697;42.770;23.400;2023-02-28T16:16:48;19.13;;;9.18;;
32196;SDS011;18697;42.770;23.400;2023-02-28T16:19:15;14.68;;;7.10;;
32196;SDS011;18697;42.770;23.400;2023-02-28T16:21:40;6.78;;;3.97;;
32196;SDS011;18697;42.770;23.400;2023-02-28T16:24:06;8.77;;;5.05;;
32196;SDS011;18697;42.770;23.400;2023-02-28T16:26:32;3.50;;;2.47;;
32196;SDS011;18697;42.770;23.400;2023-02-28T16:28:59;13.05;;;6.57;;
32196;SDS011;18697;42.770;23.400;2023-02-28T16:31:26;4.28;;;2.95;;
32196;SDS011;18697;42.770;23.400;2023-02-28T16:33:52;7.35;;;3.78;;
32196;SDS011;18697;42.770;23.400;2023-02-28T16:36:19;13.43;;;10.15;;
32196;SDS011;18697;42.770;23.400;2023-02-28T16:38:46;12.32;;;9.23;;
32196;SDS011;18697;42.770;23.400;2023-02-28T16:41:13;18.90;;;10.45;;
32196;SDS011;18697;42.770;23.400;2023-02-28T16:43:44;28.35;;;10.63;;
32196;SDS011;18697;42.770;23.400;2023-02-28T16:46:12;38.33;;;13.52;;
32196;SDS011;18697;42.770;23.400;2023-02-28T16:48:37;41.90;;;13.70;;
32196;SDS011;18697;42.770;23.400;2023-02-28T16:51:05;33.30;;;14.70;;
32196;SDS011;18697;42.770;23.400;2023-02-28T16:53:31;21.17;;;11.15;;
32196;SDS011;18697;42.770;23.400;2023-02-28T16:55:57;11.57;;;6.72;;
32196;SDS011;18697;42.770;23.400;2023-02-28T16:58:22;11.85;;;7.97;;
32196;SDS011;18697;42.770;23.400;2023-02-28T17:00:50;24.35;;;15.40;;
32196;SDS011;18697;42.770;23.400;2023-02-28T17:03:24;32.83;;;16.17;;
32196;SDS011;18697;42.770;23.400;2023-02-28T17:05:51;17.02;;;9.68;;
32196;SDS011;18697;42.770;23.400;2023-02-28T17:08:16;29.85;;;12.70;;
32196;SDS011;18697;42.770;23.400;2023-02-28T17:10:42;42.03;;;17.80;;
32196;SDS011;18697;42.770;23.400;2023-02-28T17:13:08;27.13;;;14.00;;
32196;SDS011;18697;42.770;23.400;2023-02-28T17:15:34;38.92;;;17.52;;
32196;SDS011;18697;42.770;23.400;2023-02-28T17:18:00;42.67;;;15.50;;
32196;SDS011;18697;42.770;23.400;2023-02-28T17:20:26;19.63;;;7.32;;
32196;SDS011;18697;42.770;23.400;2023-02-28T17:22:54;12.05;;;6.53;;
32196;SDS011;18697;42.770;23.400;2023-02-28T17:25:21;11.95;;;6.30;;
32196;SDS011;18697;42.770;23.400;2023-02-28T17:27:47;18.90;;;9.23;;